Time;durP1;ratioP1;P1;durP2;ratioP2;P2;SDS_P1;SDS_P2;PMS_P1;PMS_P2;Temp;Humidity;BMP_temperature;BMP_pressure;BME280_temperature;BME280_humidity;BME280_pressure;Samples;Min_cycle;Max_cycle;Signal;HPM_P1;HPM_P2
2021/11/21 00:00:44;;;;;;;13.54;4.16;;;;;;;;;;349341;151;867912;-59
2021/11/21 00:01:46;;;;;;;12.34;3.75;;;;;;;;;;349587;152;864985;-59
2021/11/21 00:02:48;;;;;;;11.72;4.22;;;;;;;;;;348647;153;866207;-59
2021/11/21 00:03:49;;;;;;;13.62;4.81;;;;;;;;;;343798;155;866707;-59
2021/11/21 00:04:51;;;;;;;14.35;4.39;;;;;;;;;;348984;151;868179;-59
2021/11/21 00:05:53;;;;;;;19.68;5.58;;;;;;;;;;348023;153;866752;-59
2021/11/21 00:06:54;;;;;;;8.76;3.98;;;;;;;;;;349108;153;865887;-59
2021/11/21 00:07:56;;;;;;;16.66;5.11;;;;;;;;;;350402;151;866522;-58
2021/11/21 00:08:58;;;;;;;15.76;4.21;;;;;;;;;;349248;151;866423;-59
2021/11/21 00:09:59;;;;;;;13.55;4.18;;;;;;;;;;348606;153;864992;-58
2021/11/21 00:11:01;;;;;;;12.43;4.51;;;;;;;;;;349156;151;867271;-59
2021/11/21 00:12:03;;;;;;;13.64;4.84;;;;;;;;;;349554;151;864972;-59
2021/11/21 00:13:05;;;;;;;19.59;4.83;;;;;;;;;;348694;153;866493;-59
2021/11/21 00:14:07;;;;;;;12.39;4.33;;;;;;;;;;349716;153;858675;-59
2021/11/21 00:15:08;;;;;;;12.55;4.53;;;;;;;;;;350459;151;857145;-59
2021/11/21 00:16:12;;;;;;;15.92;4.65;;;;;;;;;;349231;153;859552;-59
2021/11/21 00:17:13;;;;;;;13.84;4.91;;;;;;;;;;349881;153;865019;-59
2021/11/21 00:18:15;;;;;;;16.76;4.37;;;;;;;;;;347858;153;865913;-59
2021/11/21 00:19:16;;;;;;;13.66;4.92;;;;;;;;;;349423;151;857114;-59
2021/11/21 00:20:18;;;;;;;18.91;5.94;;;;;;;;;;349395;151;857546;-60
2021/11/21 00:21:20;;;;;;;14.59;4.28;;;;;;;;;;348495;151;857962;-60
2021/11/21 00:22:24;;;;;;;16.72;5.70;;;;;;;;;;347566;152;865903;-59
2021/11/21 00:23:26;;;;;;;14.29;4.56;;;;;;;;;;349889;152;857403;-59
2021/11/21 00:24:28;;;;;;;14.18;4.61;;;;;;;;;;348024;154;857304;-59
2021/11/21 00:25:29;;;;;;;15.15;4.57;;;;;;;;;;349066;151;865674;-58
2021/11/21 00:26:31;;;;;;;15.26;5.05;;;;;;;;;;349191;152;864925;-60
2021/11/21 00:27:33;;;;;;;13.76;4.72;;;;;;;;;;349557;151;857212;-56
2021/11/21 00:28:34;;;;;;;19.07;5.32;;;;;;;;;;350772;151;866430;-58
2021/11/21 00:29:36;;;;;;;15.05;5.24;;;;;;;;;;350136;151;864879;-58
2021/11/21 00:30:37;;;;;;;12.73;4.36;;;;;;;;;;349297;151;865733;-59
2021/11/21 00:31:39;;;;;;;14.11;4.25;;;;;;;;;;349209;151;863937;-58
2021/11/21 00:32:41;;;;;;;18.82;4.57;;;;;;;;;;349574;151;867096;-58
2021/11/21 00:33:43;;;;;;;17.02;4.86;;;;;;;;;;349675;151;866775;-58
2021/11/21 00:34:44;;;;;;;11.88;4.21;;;;;;;;;;347998;153;865020;-58
2021/11/21 00:35:46;;;;;;;14.84;4.46;;;;;;;;;;349705;151;865885;-58
2021/11/21 00:36:47;;;;;;;12.11;4.14;;;;;;;;;;348934;152;864948;-58
2021/11/21 00:37:49;;;;;;;15.02;4.89;;;;;;;;;;349035;151;865040;-58
2021/11/21 00:38:51;;;;;;;12.73;4.24;;;;;;;;;;348726;151;864927;-59
2021/11/21 00:39:52;;;;;;;16.39;4.99;;;;;;;;;;349504;151;865877;-58
2021/11/21 00:40:54;;;;;;;11.24;4.34;;;;;;;;;;350537;151;865045;-59
2021/11/21 00:41:55;;;;;;;15.06;4.47;;;;;;;;;;348348;151;866428;-58
2021/11/21 00:42:57;;;;;;;14.12;4.31;;;;;;;;;;349820;151;864916;-58
2021/11/21 00:43:59;;;;;;;9.87;4.03;;;;;;;;;;350300;152;866448;-59
2021/11/21 00:45:01;;;;;;;13.15;4.32;;;;;;;;;;349426;153;858272;-58
2021/11/21 00:46:03;;;;;;;9.86;4.59;;;;;;;;;;349556;153;864937;-58
2021/11/21 00:47:04;;;;;;;10.39;4.00;;;;;;;;;;350229;151;858648;-58
2021/11/21 00:48:06;;;;;;;13.27;4.30;;;;;;;;;;349690;153;864904;-58
2021/11/21 00:49:13;;;;;;;17.49;4.41;;;;;;;;;;349610;151;866660;-58
2021/11/21 00:50:14;;;;;;;11.83;4.27;;;;;;;;;;349068;153;865677;-62
2021/11/21 00:51:18;;;;;;;15.79;4.39;;;;;;;;;;342383;155;858398;-59
2021/11/21 00:52:21;;;;;;;12.94;4.62;;;;;;;;;;348354;153;858632;-60
2021/11/21 00:53:23;;;;;;;13.99;4.35;;;;;;;;;;348839;153;857803;-59
2021/11/21 00:55:54;;;;;;;14.22;4.15;;;;;;;;;;349038;153;864022;-58
2021/11/21 00:56:51;;;;;;;13.35;4.11;;;;;;;;;;345962;153;864958;-58
2021/11/21 00:57:52;;;;;;;14.39;4.69;;;;;;;;;;348149;151;859691;-58
2021/11/21 00:58:54;;;;;;;11.43;3.95;;;;;;;;;;348893;152;864924;-59
2021/11/21 00:59:56;;;;;;;16.36;4.68;;;;;;;;;;350556;151;866716;-58
2021/11/21 01:00:57;;;;;;;14.89;4.61;;;;;;;;;;349584;154;865724;-58
2021/11/21 01:02:01;;;;;;;12.09;4.79;;;;;;;;;;350241;152;865308;-59
2021/11/21 01:03:03;;;;;;;11.48;4.71;;;;;;;;;;349830;151;867141;-59
2021/11/21 01:04:04;;;;;;;12.79;4.63;;;;;;;;;;350195;151;864835;-59
2021/11/21 01:05:06;;;;;;;13.79;4.52;;;;;;;;;;349042;153;865034;-58
2021/11/21 01:06:09;;;;;;;20.15;4.75;;;;;;;;;;349140;152;865583;-59
2021/11/21 01:07:10;;;;;;;11.73;4.46;;;;;;;;;;352378;151;858228;-59
2021/11/21 01:08:12;;;;;;;12.64;4.10;;;;;;;;;;348268;151;864884;-59
2021/11/21 01:09:14;;;;;;;14.50;4.97;;;;;;;;;;350280;151;865086;-59
2021/11/21 01:10:18;;;;;;;12.49;5.14;;;;;;;;;;349684;151;865018;-59
2021/11/21 01:11:19;;;;;;;10.36;4.25;;;;;;;;;;350286;151;858123;-59
2021/11/21 01:12:25;;;;;;;13.69;4.71;;;;;;;;;;349985;152;857252;-59
2021/11/21 01:13:29;;;;;;;16.59;5.37;;;;;;;;;;349116;152;857726;-59
2021/11/21 01:14:31;;;;;;;14.93;4.19;;;;;;;;;;349583;153;858109;-59
2021/11/21 01:15:32;;;;;;;13.91;5.11;;;;;;;;;;346893;153;864891;-59
2021/11/21 01:16:34;;;;;;;15.49;4.51;;;;;;;;;;350081;152;865050;-59
2021/11/21 01:17:36;;;;;;;13.71;4.37;;;;;;;;;;349410;151;857314;-59
2021/11/21 01:18:37;;;;;;;9.34;4.11;;;;;;;;;;349724;154;859232;-58
2021/11/21 01:19:43;;;;;;;12.01;4.81;;;;;;;;;;349095;152;864976;-58
2021/11/21 01:20:43;;;;;;;13.22;5.71;;;;;;;;;;349299;153;865714;-58
2021/11/21 01:21:44;;;;;;;14.81;5.55;;;;;;;;;;349841;151;865028;-58
2021/11/21 01:22:46;;;;;;;14.09;5.88;;;;;;;;;;348845;153;864998;-59
2021/11/21 01:23:48;;;;;;;13.67;5.19;;;;;;;;;;342001;154;865914;-59
2021/11/21 01:24:49;;;;;;;12.18;5.29;;;;;;;;;;348587;152;865009;-57
2021/11/21 01:25:51;;;;;;;11.26;5.31;;;;;;;;;;349043;153;866076;-58
2021/11/21 01:26:53;;;;;;;18.05;5.61;;;;;;;;;;348793;151;864963;-59
2021/11/21 01:27:54;;;;;;;18.91;6.32;;;;;;;;;;350043;151;859008;-59
2021/11/21 01:28:56;;;;;;;13.10;4.84;;;;;;;;;;349112;151;864961;-58
2021/11/21 01:29:57;;;;;;;13.24;5.24;;;;;;;;;;348992;153;866041;-58
2021/11/21 01:30:59;;;;;;;15.79;4.76;;;;;;;;;;349813;151;864989;-59
2021/11/21 01:32:01;;;;;;;11.49;5.26;;;;;;;;;;349030;151;857301;-58
2021/11/21 01:33:03;;;;;;;12.73;5.26;;;;;;;;;;347584;153;866788;-58
2021/11/21 01:34:05;;;;;;;14.19;5.24;;;;;;;;;;352640;150;857297;-58
2021/11/21 01:35:07;;;;;;;11.04;5.07;;;;;;;;;;346902;153;860759;-58
2021/11/21 01:36:09;;;;;;;10.77;4.87;;;;;;;;;;348133;151;866749;-59
2021/11/21 01:37:11;;;;;;;11.53;5.21;;;;;;;;;;348274;151;857327;-59
2021/11/21 01:38:13;;;;;;;10.94;5.20;;;;;;;;;;347724;153;866317;-58
2021/11/21 01:39:15;;;;;;;12.78;5.41;;;;;;;;;;347512;152;864829;-59
2021/11/21 01:40:18;;;;;;;11.83;5.06;;;;;;;;;;349148;154;859428;-59
2021/11/21 01:41:20;;;;;;;12.16;5.91;;;;;;;;;;348877;151;859430;-58
2021/11/21 01:42:23;;;;;;;13.27;5.37;;;;;;;;;;348318;151;857326;-58
2021/11/21 01:43:25;;;;;;;14.36;5.83;;;;;;;;;;349056;151;866463;-59
2021/11/21 01:44:27;;;;;;;14.43;5.56;;;;;;;;;;350950;151;858180;-58
2021/11/21 01:45:29;;;;;;;12.76;5.21;;;;;;;;;;347841;153;865939;-58
2021/11/21 01:46:35;;;;;;;15.18;5.52;;;;;;;;;;349339;151;865056;-58
2021/11/21 01:47:39;;;;;;;13.48;5.22;;;;;;;;;;351317;151;857284;-58
2021/11/21 01:48:41;;;;;;;15.69;5.90;;;;;;;;;;349332;151;858431;-58
2021/11/21 01:49:43;;;;;;;11.78;4.84;;;;;;;;;;349327;153;858528;-58
2021/11/21 01:50:44;;;;;;;13.17;5.86;;;;;;;;;;343026;151;865433;-59
2021/11/21 01:51:46;;;;;;;13.95;5.32;;;;;;;;;;349220;151;857685;-59
2021/11/21 01:52:48;;;;;;;11.13;5.37;;;;;;;;;;348833;151;865926;-59
2021/11/21 01:53:49;;;;;;;10.82;5.20;;;;;;;;;;346925;151;857779;-59
2021/11/21 01:54:51;;;;;;;11.77;4.60;;;;;;;;;;344330;152;866079;-58
2021/11/21 01:55:53;;;;;;;11.60;5.96;;;;;;;;;;348742;152;865271;-58
2021/11/21 01:56:54;;;;;;;13.43;5.11;;;;;;;;;;348380;152;865257;-58
2021/11/21 01:57:56;;;;;;;11.32;4.90;;;;;;;;;;348725;152;865427;-59
2021/11/21 01:58:58;;;;;;;13.41;4.93;;;;;;;;;;349577;152;858386;-58
2021/11/21 02:00:02;;;;;;;10.41;4.64;;;;;;;;;;347843;152;857220;-58
2021/11/21 02:01:03;;;;;;;11.54;4.71;;;;;;;;;;349819;153;865549;-59
2021/11/21 02:02:05;;;;;;;14.38;5.51;;;;;;;;;;348319;151;858770;-59
2021/11/21 02:03:06;;;;;;;13.51;5.09;;;;;;;;;;349310;151;866308;-59
2021/11/21 02:04:08;;;;;;;13.86;5.62;;;;;;;;;;344838;153;864919;-58
2021/11/21 02:05:10;;;;;;;9.00;4.42;;;;;;;;;;339396;156;866733;-59
2021/11/21 02:06:12;;;;;;;12.38;5.54;;;;;;;;;;353681;150;865012;-59
2021/11/21 02:07:13;;;;;;;11.81;5.37;;;;;;;;;;352152;149;859014;-59
2021/11/21 02:08:16;;;;;;;11.69;5.66;;;;;;;;;;352070;151;865756;-59
2021/11/21 02:09:17;;;;;;;10.43;5.52;;;;;;;;;;354708;149;866423;-59
2021/11/21 02:10:19;;;;;;;14.11;5.14;;;;;;;;;;353183;150;857808;-59
2021/11/21 02:11:21;;;;;;;12.93;5.22;;;;;;;;;;353779;149;865271;-58
2021/11/21 02:12:22;;;;;;;11.56;5.51;;;;;;;;;;352481;150;858248;-59
2021/11/21 02:13:24;;;;;;;12.01;5.12;;;;;;;;;;352240;150;865093;-58
2021/11/21 02:14:26;;;;;;;12.37;5.51;;;;;;;;;;352126;152;857977;-58
2021/11/21 02:15:27;;;;;;;12.19;5.68;;;;;;;;;;347666;153;856802;-61
2021/11/21 02:16:29;;;;;;;16.96;5.61;;;;;;;;;;349144;152;865207;-58
2021/11/21 02:17:31;;;;;;;12.31;6.35;;;;;;;;;;351407;150;865045;-58
2021/11/21 02:18:32;;;;;;;10.06;4.86;;;;;;;;;;354081;150;859179;-59
2021/11/21 02:19:34;;;;;;;12.27;5.79;;;;;;;;;;353933;148;864912;-58
2021/11/21 02:20:37;;;;;;;9.60;5.44;;;;;;;;;;353225;150;866626;-59
2021/11/21 02:21:39;;;;;;;11.11;5.78;;;;;;;;;;352304;150;865861;-58
2021/11/21 02:22:41;;;;;;;13.39;6.01;;;;;;;;;;351978;152;858699;-59
2021/11/21 02:23:43;;;;;;;10.76;5.47;;;;;;;;;;352812;149;866941;-59
2021/11/21 02:24:44;;;;;;;10.93;4.92;;;;;;;;;;355290;150;859134;-59
2021/11/21 02:25:46;;;;;;;12.73;5.47;;;;;;;;;;351981;150;857274;-58
2021/11/21 02:26:48;;;;;;;14.07;6.27;;;;;;;;;;352698;151;865895;-59
2021/11/21 02:27:49;;;;;;;13.91;6.30;;;;;;;;;;353920;150;859026;-58
2021/11/21 02:28:55;;;;;;;11.71;5.78;;;;;;;;;;353132;150;857203;-59
2021/11/21 02:29:57;;;;;;;12.59;5.28;;;;;;;;;;353073;149;864917;-59
2021/11/21 02:30:59;;;;;;;13.01;5.77;;;;;;;;;;353318;150;859174;-61
2021/11/21 02:32:00;;;;;;;11.56;5.61;;;;;;;;;;354257;150;860583;-59
2021/11/21 02:33:02;;;;;;;13.92;6.06;;;;;;;;;;354009;150;864942;-59
2021/11/21 02:34:03;;;;;;;12.98;5.95;;;;;;;;;;346421;152;865600;-58
2021/11/21 02:35:05;;;;;;;12.51;4.99;;;;;;;;;;344248;154;857168;-59
2021/11/21 02:36:08;;;;;;;10.59;5.12;;;;;;;;;;351651;150;866234;-59
2021/11/21 02:37:10;;;;;;;14.24;5.39;;;;;;;;;;351811;153;858083;-59
2021/11/21 02:38:12;;;;;;;14.09;6.34;;;;;;;;;;345295;152;860033;-59
2021/11/21 02:39:13;;;;;;;14.55;5.77;;;;;;;;;;351223;152;864878;-59
2021/11/21 02:40:15;;;;;;;9.75;5.45;;;;;;;;;;347937;152;857286;-59
2021/11/21 02:41:17;;;;;;;13.42;4.87;;;;;;;;;;343919;154;858830;-59
2021/11/21 02:42:34;;;;;;;11.91;5.53;;;;;;;;;;352381;151;857408;-59
2021/11/21 02:43:36;;;;;;;12.71;5.88;;;;;;;;;;346368;152;856839;-59
2021/11/21 02:44:37;;;;;;;7.59;4.89;;;;;;;;;;346277;153;859715;-59
2021/11/21 02:45:39;;;;;;;8.76;4.74;;;;;;;;;;345097;152;857929;-59
2021/11/21 02:46:41;;;;;;;10.96;5.12;;;;;;;;;;351309;151;857197;-59
2021/11/21 02:47:43;;;;;;;7.80;4.64;;;;;;;;;;346565;153;864633;-58
2021/11/21 02:48:44;;;;;;;12.83;5.76;;;;;;;;;;352896;151;863556;-59
2021/11/21 02:49:46;;;;;;;8.87;5.70;;;;;;;;;;344954;153;856186;-58
2021/11/21 02:50:48;;;;;;;10.74;5.28;;;;;;;;;;352209;150;863918;-59
2021/11/21 02:51:49;;;;;;;14.14;5.19;;;;;;;;;;352704;150;858407;-59
2021/11/21 02:52:51;;;;;;;14.11;5.96;;;;;;;;;;351413;152;864011;-58
2021/11/21 02:53:53;;;;;;;13.49;6.01;;;;;;;;;;353851;150;862718;-59
2021/11/21 02:54:55;;;;;;;10.87;5.69;;;;;;;;;;353374;150;856094;-58
2021/11/21 02:55:58;;;;;;;12.78;6.22;;;;;;;;;;353022;151;863787;-58
2021/11/21 02:57:00;;;;;;;14.65;6.12;;;;;;;;;;352092;150;856068;-58
2021/11/21 02:58:02;;;;;;;13.74;5.86;;;;;;;;;;348505;150;856120;-57
2021/11/21 02:59:04;;;;;;;10.36;6.33;;;;;;;;;;345297;152;863877;-58
2021/11/21 03:00:06;;;;;;;12.15;5.83;;;;;;;;;;346426;152;858923;-58
2021/11/21 03:01:09;;;;;;;11.81;5.59;;;;;;;;;;355983;150;857322;-59
2021/11/21 03:02:11;;;;;;;11.18;5.71;;;;;;;;;;351667;150;858958;-59
2021/11/21 03:03:14;;;;;;;11.98;5.43;;;;;;;;;;352236;150;857412;-60
2021/11/21 03:04:16;;;;;;;11.42;6.29;;;;;;;;;;353474;150;864929;-59
2021/11/21 03:05:19;;;;;;;9.91;5.81;;;;;;;;;;352642;150;857311;-56
2021/11/21 03:06:22;;;;;;;14.86;5.92;;;;;;;;;;348716;152;866024;-57
2021/11/21 03:07:24;;;;;;;11.63;6.47;;;;;;;;;;351130;150;859179;-58
2021/11/21 03:08:26;;;;;;;11.51;6.04;;;;;;;;;;352108;150;857521;-58
2021/11/21 03:09:27;;;;;;;10.58;5.64;;;;;;;;;;347407;152;859669;-58
2021/11/21 03:10:30;;;;;;;9.88;6.03;;;;;;;;;;351472;150;865061;-57
2021/11/21 03:11:32;;;;;;;11.54;6.38;;;;;;;;;;353243;150;857694;-58
2021/11/21 03:12:34;;;;;;;8.78;5.95;;;;;;;;;;357228;150;865519;-58
2021/11/21 03:13:36;;;;;;;11.57;5.66;;;;;;;;;;353054;150;857560;-58
2021/11/21 03:14:37;;;;;;;9.10;5.93;;;;;;;;;;351512;152;865485;-58
2021/11/21 03:15:39;;;;;;;10.05;5.65;;;;;;;;;;355264;150;864228;-59
2021/11/21 03:16:42;;;;;;;8.79;5.91;;;;;;;;;;347544;152;864624;-58
2021/11/21 03:17:43;;;;;;;11.11;5.37;;;;;;;;;;352355;150;857229;-58
2021/11/21 03:18:45;;;;;;;11.54;6.14;;;;;;;;;;348139;152;860575;-58
2021/11/21 03:19:47;;;;;;;9.42;4.94;;;;;;;;;;343784;154;866670;-59
2021/11/21 03:20:48;;;;;;;9.54;5.37;;;;;;;;;;352318;150;865669;-60
2021/11/21 03:21:50;;;;;;;11.34;5.26;;;;;;;;;;351307;151;864971;-59
2021/11/21 03:22:53;;;;;;;11.36;5.99;;;;;;;;;;354743;150;866932;-59
2021/11/21 03:23:54;;;;;;;12.37;6.14;;;;;;;;;;352827;150;864982;-59
2021/11/21 03:24:56;;;;;;;11.14;6.26;;;;;;;;;;352123;150;857678;-60
2021/11/21 03:25:58;;;;;;;7.38;5.38;;;;;;;;;;353156;151;864993;-61
2021/11/21 03:26:59;;;;;;;8.26;6.16;;;;;;;;;;345391;154;866471;-59
2021/11/21 03:28:03;;;;;;;9.75;5.76;;;;;;;;;;353465;150;864863;-59
2021/11/21 03:29:05;;;;;;;12.79;6.37;;;;;;;;;;345890;154;866682;-59
2021/11/21 03:30:08;;;;;;;9.94;6.48;;;;;;;;;;347955;152;858792;-59
2021/11/21 03:31:10;;;;;;;11.37;6.48;;;;;;;;;;346529;152;865086;-61
2021/11/21 03:32:11;;;;;;;13.95;6.78;;;;;;;;;;351764;151;866404;-59
2021/11/21 03:33:13;;;;;;;11.16;6.13;;;;;;;;;;347318;153;863724;-59
2021/11/21 03:34:14;;;;;;;13.40;6.47;;;;;;;;;;346554;155;864962;-59
2021/11/21 03:35:35;;;;;;;12.00;6.69;;;;;;;;;;353629;150;866699;-59
2021/11/21 03:36:51;;;;;;;14.76;6.43;;;;;;;;;;353504;150;864883;-58
2021/11/21 03:37:52;;;;;;;8.61;5.64;;;;;;;;;;342126;151;857329;-60
2021/11/21 03:38:54;;;;;;;11.26;5.86;;;;;;;;;;354318;149;857292;-59
2021/11/21 03:39:55;;;;;;;11.17;6.54;;;;;;;;;;353971;150;864986;-59
2021/11/21 03:40:57;;;;;;;11.47;6.29;;;;;;;;;;356494;150;866711;-58
2021/11/21 03:41:59;;;;;;;11.26;7.37;;;;;;;;;;355090;149;865532;-60
2021/11/21 03:43:02;;;;;;;9.21;6.24;;;;;;;;;;352710;150;864969;-59
2021/11/21 03:44:22;;;;;;;11.30;6.50;;;;;;;;;;352913;150;863925;-60
2021/11/21 03:45:24;;;;;;;11.46;6.60;;;;;;;;;;355026;150;858219;-59
2021/11/21 03:46:26;;;;;;;10.61;5.58;;;;;;;;;;352553;150;864195;-59
2021/11/21 03:47:27;;;;;;;10.86;5.91;;;;;;;;;;354807;149;856613;-59
2021/11/21 03:48:29;;;;;;;12.44;5.56;;;;;;;;;;348869;149;864156;-59
2021/11/21 03:49:31;;;;;;;9.43;5.93;;;;;;;;;;354212;149;865993;-59
2021/11/21 03:50:33;;;;;;;11.54;5.74;;;;;;;;;;352888;150;858487;-58
2021/11/21 03:51:34;;;;;;;11.31;6.39;;;;;;;;;;357613;147;857563;-59
2021/11/21 03:52:36;;;;;;;10.88;6.44;;;;;;;;;;348677;151;864033;-60
2021/11/21 03:53:38;;;;;;;11.51;6.42;;;;;;;;;;348727;152;862380;-59
2021/11/21 03:54:40;;;;;;;11.58;5.81;;;;;;;;;;346848;153;856447;-59
2021/11/21 03:55:42;;;;;;;13.72;6.51;;;;;;;;;;348855;151;863900;-59
2021/11/21 03:56:43;;;;;;;11.64;6.06;;;;;;;;;;352540;150;864563;-59
2021/11/21 03:57:45;;;;;;;8.27;6.37;;;;;;;;;;354916;149;865532;-58
2021/11/21 03:58:47;;;;;;;8.49;6.26;;;;;;;;;;352027;150;864938;-59
2021/11/21 03:59:49;;;;;;;13.60;6.46;;;;;;;;;;353532;150;859094;-60
2021/11/21 04:00:50;;;;;;;13.02;6.46;;;;;;;;;;352822;150;864967;-58
2021/11/21 04:01:54;;;;;;;12.50;6.19;;;;;;;;;;353478;150;866657;-59
2021/11/21 04:02:56;;;;;;;10.75;6.59;;;;;;;7.21;94.89;112914.44;353981;150;857797;-59
2021/11/21 04:03:59;;;;;;;7.55;4.82;;;;;;;;;;352464;150;865040;-58
2021/11/21 04:05:01;;;;;;;14.87;5.58;;;;;;;;;;354403;149;859078;-59
2021/11/21 04:06:03;;;;;;;9.38;5.12;;;;;;;7.07;94.87;62996.54;355916;149;856840;-60
2021/11/21 04:07:05;;;;;;;7.14;4.51;;;;;;;;;;352619;149;864834;-60
2021/11/21 04:08:06;;;;;;;8.31;4.26;;;;;;;;;;352730;149;857637;-59
2021/11/21 04:09:08;;;;;;;8.10;4.26;;;;;;;;;;353665;150;865138;-59
2021/11/21 04:10:10;;;;;;;9.71;5.07;;;;;;;;;;352454;150;866572;-59
2021/11/21 04:11:12;;;;;;;6.02;4.79;;;;;;;;;;351807;150;859031;-59
2021/11/21 04:12:13;;;;;;;8.54;5.31;;;;;;;;;;353333;149;864913;-58
2021/11/21 04:13:15;;;;;;;8.11;5.55;;;;;;;;;;358350;150;867819;-59
2021/11/21 04:14:17;;;;;;;9.64;5.64;;;;;;;;;;353772;149;861941;-61
2021/11/21 04:15:18;;;;;;;10.23;5.90;;;;;;;;;;346286;152;865285;-59
2021/11/21 04:16:21;;;;;;;9.39;5.65;;;;;;;;;;354686;149;866470;-58
2021/11/21 04:17:23;;;;;;;13.01;6.05;;;;;;;;;;348323;151;865131;-62
2021/11/21 04:18:24;;;;;;;8.65;5.50;;;;;;;;;;348666;152;866140;-63
2021/11/21 04:19:37;;;;;;;8.79;6.01;;;;;;;;;;349380;151;865621;-60
2021/11/21 04:20:39;;;;;;;11.96;6.32;;;;;;;;;;348860;151;865915;-59
2021/11/21 04:21:40;;;;;;;11.39;5.69;;;;;;;;;;347844;153;858569;-59
2021/11/21 04:22:42;;;;;;;12.74;6.28;;;;;;;;;;351333;151;865561;-59
2021/11/21 04:23:44;;;;;;;7.34;5.14;;;;;;;;;;348856;154;865040;-59
2021/11/21 04:24:46;;;;;;;8.83;5.78;;;;;;;;;;349469;151;865771;-59
2021/11/21 04:25:47;;;;;;;9.15;6.11;;;;;;;;;;347147;151;865130;-58
2021/11/21 04:26:49;;;;;;;10.58;6.23;;;;;;;;;;349141;151;859173;-58
2021/11/21 04:27:56;;;;;;;9.64;5.96;;;;;;;;;;348699;151;865186;-58
2021/11/21 04:28:57;;;;;;;11.21;6.31;;;;;;;;;;349185;151;864969;-57
2021/11/21 04:29:59;;;;;;;9.04;6.80;;;;;;;;;;348474;151;857223;-58
2021/11/21 04:31:01;;;;;;;10.72;6.39;;;;;;;;;;348718;151;865002;-59
2021/11/21 04:32:03;;;;;;;8.69;5.99;;;;;;;;;;349105;151;858374;-58
2021/11/21 04:33:04;;;;;;;11.26;6.07;;;;;;;;;;347921;152;866326;-59
2021/11/21 04:34:06;;;;;;;12.22;6.51;;;;;;;;;;347570;151;857639;-59
2021/11/21 04:35:09;;;;;;;11.64;6.19;;;;;;;;;;348083;151;858575;-56
2021/11/21 04:36:11;;;;;;;14.02;6.46;;;;;;;;;;347794;152;864885;-57
2021/11/21 04:37:13;;;;;;;9.69;6.34;;;;;;;;;;348432;151;859422;-58
2021/11/21 04:38:14;;;;;;;10.70;6.01;;;;;;;;;;348281;151;864924;-57
2021/11/21 04:39:16;;;;;;;11.25;6.55;;;;;;;;;;349274;151;866544;-58
2021/11/21 04:40:18;;;;;;;8.71;6.49;;;;;;;;;;349467;151;859716;-58
2021/11/21 04:41:19;;;;;;;8.70;6.16;;;;;;;;;;350001;151;857684;-58
2021/11/21 04:42:21;;;;;;;13.44;5.95;;;;;;;;;;348464;152;865658;-58
2021/11/21 04:43:23;;;;;;;10.71;5.86;;;;;;;;;;348682;152;865594;-58
2021/11/21 04:44:24;;;;;;;8.98;6.24;;;;;;;;;;348534;152;866818;-57
2021/11/21 04:45:26;;;;;;;10.61;6.69;;;;;;;;;;350417;151;865255;-58
2021/11/21 04:46:28;;;;;;;10.91;6.47;;;;;;;;;;348984;151;861362;-61
2021/11/21 04:47:29;;;;;;;12.12;6.36;;;;;;;;;;346053;152;857414;-61
2021/11/21 04:48:31;;;;;;;9.31;6.50;;;;;;;;;;353763;151;865856;-60
2021/11/21 04:49:33;;;;;;;11.76;6.92;;;;;;;;;;352502;150;863262;-60
2021/11/21 04:50:35;;;;;;;10.15;6.49;;;;;;;;;;353543;150;858805;-61
2021/11/21 04:51:37;;;;;;;9.22;6.13;;;;;;;;;;353485;150;857579;-59
2021/11/21 04:52:38;;;;;;;10.58;6.12;;;;;;;;;;355346;150;865495;-60
2021/11/21 04:53:40;;;;;;;10.82;6.47;;;;;;;;;;353555;150;864932;-60
2021/11/21 04:54:42;;;;;;;9.81;6.09;;;;;;;;;;352788;149;865279;-60
2021/11/21 04:55:43;;;;;;;12.02;6.57;;;;;;;;;;352934;150;864999;-59
2021/11/21 04:56:47;;;;;;;9.54;6.42;;;;;;;;;;353710;149;865849;-59
2021/11/21 04:57:49;;;;;;;10.03;6.39;;;;;;;;;;352185;150;866458;-60
2021/11/21 04:58:53;;;;;;;8.92;5.91;;;;;;;;;;356026;149;857372;-59
2021/11/21 04:59:56;;;;;;;12.37;6.59;;;;;;;;;;351806;150;859149;-61
2021/11/21 05:00:59;;;;;;;10.53;6.28;;;;;;;;;;347903;152;858934;-61
2021/11/21 05:02:01;;;;;;;9.43;6.79;;;;;;;;;;347260;152;857234;-60
2021/11/21 05:03:03;;;;;;;11.52;6.31;;;;;;;;;;353120;150;857666;-57
2021/11/21 05:04:04;;;;;;;10.60;6.43;;;;;;;;;;353515;150;857340;-58
2021/11/21 05:05:07;;;;;;;9.86;6.84;;;;;;;;;;352626;149;865046;-58
2021/11/21 05:06:10;;;;;;;13.83;6.54;;;;;;;;;;352734;152;864863;-59
2021/11/21 05:07:11;;;;;;;11.42;6.89;;;;;;;;;;350571;151;866685;-60
2021/11/21 05:08:13;;;;;;;9.44;6.07;;;;;;;;;;348067;152;865026;-59
2021/11/21 05:09:14;;;;;;;10.14;6.33;;;;;;;;;;346144;153;866179;-58
2021/11/21 05:10:17;;;;;;;14.23;6.81;;;;;;;;;;349580;152;865051;-59
2021/11/21 05:11:18;;;;;;;9.09;6.54;;;;;;;;;;353238;149;857318;-62
2021/11/21 05:12:22;;;;;;;9.66;7.19;;;;;;;;;;352843;150;865747;-60
2021/11/21 05:13:23;;;;;;;11.94;6.79;;;;;;;;;;353107;150;865135;-61
2021/11/21 05:14:25;;;;;;;11.38;7.27;;;;;;;;;;353837;150;857789;-60
2021/11/21 05:15:27;;;;;;;10.57;6.68;;;;;;;;;;352764;150;865844;-60
2021/11/21 05:16:29;;;;;;;8.73;6.03;;;;;;;;;;353621;150;856657;-60
2021/11/21 05:17:31;;;;;;;8.58;6.42;;;;;;;;;;353317;149;858263;-60
2021/11/21 05:18:32;;;;;;;10.08;6.86;;;;;;;;;;354146;150;865787;-58
2021/11/21 05:19:34;;;;;;;10.21;6.87;;;;;;;;;;352684;150;864858;-59
2021/11/21 05:20:36;;;;;;;10.75;7.30;;;;;;;;;;352696;150;863771;-61
2021/11/21 05:21:38;;;;;;;10.76;7.23;;;;;;;;;;354346;150;864752;-60
2021/11/21 05:22:39;;;;;;;13.24;7.37;;;;;;;;;;353420;150;856132;-60
2021/11/21 05:23:41;;;;;;;10.14;6.85;;;;;;;;;;352879;150;864473;-59
2021/11/21 05:24:42;;;;;;;10.78;7.66;;;;;;;;;;353304;149;864960;-62
2021/11/21 05:25:44;;;;;;;10.72;7.20;;;;;;;;;;354111;150;866120;-59
2021/11/21 05:26:46;;;;;;;11.46;7.83;;;;;;;;;;353475;150;865046;-61
2021/11/21 05:27:48;;;;;;;9.74;6.89;;;;;;;;;;353146;150;858186;-62
2021/11/21 05:28:49;;;;;;;12.65;6.25;;;;;;;;;;353817;150;865546;-62
2021/11/21 05:29:51;;;;;;;11.40;6.87;;;;;;;;;;352064;150;865934;-59
2021/11/21 05:30:53;;;;;;;11.49;6.66;;;;;;;;;;347365;153;865028;-60
2021/11/21 05:31:54;;;;;;;11.91;6.69;;;;;;;;;;340028;155;857186;-60
2021/11/21 05:32:56;;;;;;;11.51;7.14;;;;;;;;;;349094;152;866124;-58
2021/11/21 05:33:58;;;;;;;9.21;7.13;;;;;;;;;;347939;151;857326;-58
2021/11/21 05:34:59;;;;;;;11.45;5.99;;;;;;;;;;344138;154;863208;-60
2021/11/21 05:36:01;;;;;;;9.24;6.37;;;;;;;;;;349575;151;864991;-62
2021/11/21 05:37:03;;;;;;;9.99;6.96;;;;;;;;;;348121;151;865686;-59
2021/11/21 05:38:05;;;;;;;8.63;6.79;;;;;;;;;;341972;157;866812;-61
2021/11/21 05:39:07;;;;;;;11.24;6.96;;;;;;;;;;347996;152;856823;-60
2021/11/21 05:40:10;;;;;;;11.10;6.89;;;;;;;;;;352260;150;866259;-61
2021/11/21 05:41:11;;;;;;;14.56;7.81;;;;;;;;;;354520;149;859148;-60
2021/11/21 05:42:13;;;;;;;10.55;6.75;;;;;;;;;;353345;149;859897;-59
2021/11/21 05:43:14;;;;;;;11.31;7.06;;;;;;;;;;347781;152;864896;-59
2021/11/21 05:44:17;;;;;;;10.25;6.65;;;;;;;;;;347838;151;866686;-59
2021/11/21 05:45:18;;;;;;;10.12;7.03;;;;;;;;;;345117;151;864989;-60
2021/11/21 05:46:20;;;;;;;6.75;5.06;;;;;;;;;;349662;151;857857;-58
2021/11/21 05:47:23;;;;;;;7.85;6.51;;;;;;;;;;348973;152;857465;-59
2021/11/21 05:48:25;;;;;;;9.37;6.46;;;;;;;;;;349920;151;865740;-59
2021/11/21 05:49:27;;;;;;;10.01;6.85;;;;;;;;;;348996;151;857301;-59
2021/11/21 05:50:30;;;;;;;9.18;6.44;;;;;;;;;;349887;152;865108;-59
2021/11/21 05:51:32;;;;;;;10.52;6.91;;;;;;;;;;348476;151;857287;-58
2021/11/21 05:52:33;;;;;;;9.12;6.59;;;;;;;;;;348875;151;864918;-58
2021/11/21 05:53:35;;;;;;;10.38;6.95;;;;;;;;;;347699;151;865956;-57
2021/11/21 05:54:36;;;;;;;9.76;6.56;;;;;;;;;;347738;152;864957;-58
2021/11/21 05:55:38;;;;;;;9.83;6.35;;;;;;;;;;348943;151;866122;-59
2021/11/21 05:56:40;;;;;;;11.73;7.47;;;;;;;;;;350522;152;864599;-58
2021/11/21 05:57:42;;;;;;;9.62;6.09;;;;;;;;;;350531;151;864236;-59
2021/11/21 05:58:43;;;;;;;9.80;6.24;;;;;;;;;;349103;151;856765;-58
2021/11/21 05:59:45;;;;;;;14.34;7.16;;;;;;;;;;346177;151;864869;-59
2021/11/21 06:00:46;;;;;;;10.26;7.40;;;;;;;;;;339959;156;865135;-60
2021/11/21 06:01:48;;;;;;;9.04;6.91;;;;;;;;;;348706;151;863850;-57
2021/11/21 06:02:50;;;;;;;10.36;7.52;;;;;;;;;;345241;153;866111;-58
2021/11/21 06:03:55;;;;;;;11.55;7.67;;;;;;;;;;355933;150;859468;-59